CAZ4 weather

Quesnel (G.R. Baker Memorial Hospital) Heliport
Quesnel, British Columbia, Canada

Public forecast

Using degrees Celsius for public forecast. Weather courtesy of forecast.io.

Closest aviation weather report (METAR) to Quesnel (G.R. Baker Memorial Hospital) Heliport

Closest report is Quesnel Airport, 2.6 nm (4.9 km) N. Retrieved 2019/10/22 02:29 UTC (0 seconds ago):

CYQZ 220229Z AUTO 14009G15KT 9SM -RA BKN032 BKN048 OVC060 07/04 A2981 RMK SLP116

Closest aviation forecast (TAF) to Quesnel (G.R. Baker Memorial Hospital) Heliport

Closest forecast is Quesnel Airport, 2.6 nm (4.9 km) N. Retrieved 2019-10-22 01:00 UTC (1 hour ago):

TAF CYQZ 220038Z 2201/2206 15008KT P6SM SCT015 BKN030 TEMPO 2201/2206 5SM -RA BR SCT007 BKN015 RMK FCST BASED ON AUTO OBS NXT FCST WILL BE ISSUED AT 221145Z